Time;durP1;ratioP1;P1;durP2;ratioP2;P2;SDS_P1;SDS_P2;PMS_P1;PMS_P2;Temp;Humidity;BMP_temperature;BMP_pressure;BME280_temperature;BME280_humidity;BME280_pressure;Samples;Min_cycle;Max_cycle;Signal;HPM_P1;HPM_P2
2021/08/25 00:01:46;;;;;;;;;7.75;7.00;;;;;19.64;48.98;102002.66;6274994;22;45142;-64
2021/08/25 00:04:11;;;;;;;;;6.75;6.00;;;;;19.62;48.78;102008.13;6274714;22;45181;-63
2021/08/25 00:06:37;;;;;;;;;8.00;6.50;;;;;19.60;48.94;102002.06;6274876;22;45157;-64
2021/08/25 00:09:04;;;;;;;;;8.00;7.75;;;;;19.59;49.14;102007.50;6274710;22;45918;-63
2021/08/25 00:11:29;;;;;;;;;10.75;8.00;;;;;19.57;49.20;102006.78;6274426;22;45348;-63
2021/08/25 00:13:54;;;;;;;;;6.50;6.25;;;;;19.54;49.05;101997.16;6274412;22;45304;-63
2021/08/25 00:16:20;;;;;;;;;7.75;7.75;;;;;19.51;49.38;101989.34;6274810;22;45436;-63
2021/08/25 00:18:45;;;;;;;;;6.50;6.50;;;;;19.51;49.72;101992.00;6274584;22;45825;-63
2021/08/25 00:21:11;;;;;;;;;12.50;8.00;;;;;19.51;49.22;101992.00;6274595;22;45271;-63
2021/08/25 00:23:36;;;;;;;;;8.75;7.25;;;;;19.50;49.64;101979.63;6274498;22;45276;-63
2021/08/25 00:26:03;;;;;;;;;6.75;6.50;;;;;19.49;49.61;101980.59;6274939;22;45252;-63
2021/08/25 00:28:28;;;;;;;;;7.00;7.00;;;;;19.50;49.59;101990.31;6274886;22;45286;-63
2021/08/25 00:30:53;;;;;;;;;7.00;7.00;;;;;19.47;49.35;101980.72;6274575;22;45153;-63
2021/08/25 00:33:19;;;;;;;;;7.75;6.50;;;;;19.46;49.65;101989.72;6274712;22;45229;-63
2021/08/25 00:35:44;;;;;;;;;8.75;6.75;;;;;19.41;49.71;101983.88;6274769;22;45381;-63
2021/08/25 00:38:10;;;;;;;;;6.25;6.00;;;;;19.41;49.90;101981.19;6274744;22;45929;-63
2021/08/25 00:40:35;;;;;;;;;6.25;6.25;;;;;19.38;50.00;101980.59;6274859;22;45290;-63
2021/08/25 00:43:09;;;;;;;;;5.50;5.50;;;;;19.33;50.14;101978.25;6274723;22;45440;-63
2021/08/25 00:45:39;;;;;;;;;6.75;6.75;;;;;19.27;50.37;101973.38;6274700;22;45565;-63
2021/08/25 00:48:06;;;;;;;;;6.75;4.50;;;;;19.25;50.26;101976.16;6274019;22;45340;-63
2021/08/25 00:50:31;;;;;;;;;8.25;8.00;;;;;19.23;50.27;101977.25;6274361;22;45248;-63
2021/08/25 00:52:57;;;;;;;;;9.50;7.00;;;;;19.21;50.29;101979.22;6274369;22;45227;-63
2021/08/25 00:55:22;;;;;;;;;9.50;7.25;;;;;19.21;50.53;101977.38;6274600;22;45345;-63
2021/08/25 00:57:48;;;;;;;;;10.00;7.00;;;;;19.20;50.54;101980.19;6273838;22;45327;-63
2021/08/25 01:00:14;;;;;;;;;7.75;6.50;;;;;19.16;50.47;101979.53;6274314;22;45253;-63
2021/08/25 01:02:49;;;;;;;;;8.75;8.00;;;;;19.17;50.57;101980.38;6273880;22;45348;-63
2021/08/25 01:05:15;;;;;;;;;6.75;5.25;;;;;19.12;51.10;101975.41;6274718;22;45436;-63
2021/08/25 01:07:43;;;;;;;;;8.25;7.25;;;;;19.09;50.67;101974.78;6273887;22;45304;-63
2021/08/25 01:10:31;;;;;;;;;8.50;8.50;;;;;19.09;50.77;101970.28;6274086;22;45274;-63
2021/08/25 01:13:03;;;;;;;;;9.50;7.00;;;;;19.07;51.29;101971.38;6273878;22;45254;-63
2021/08/25 01:15:30;;;;;;;;;6.00;6.00;;;;;19.05;50.86;101974.16;6274625;22;45271;-63
2021/08/25 01:17:58;;;;;;;;;6.75;6.75;;;;;19.05;50.95;101968.84;6273232;22;45322;-63
2021/08/25 01:20:25;;;;;;;;;7.50;6.25;;;;;19.03;51.20;101964.56;6274317;22;45226;-62
2021/08/25 01:22:51;;;;;;;;;7.50;7.50;;;;;19.00;51.23;101965.66;6274266;22;45210;-62
2021/08/25 01:25:18;;;;;;;;;8.25;7.75;;;;;18.96;51.42;101962.38;6273747;22;45330;-62
2021/08/25 01:27:48;;;;;;;;;7.75;7.50;;;;;18.95;51.71;101970.47;6273741;22;45256;-62
2021/08/25 01:30:14;;;;;;;;;8.25;6.75;;;;;18.94;51.69;101963.44;6274003;22;45296;-63
2021/08/25 01:32:40;;;;;;;;;7.25;7.25;;;;;18.92;51.61;101965.38;6273777;22;45160;-62
2021/08/25 01:35:07;;;;;;;;;9.00;7.00;;;;;18.87;51.75;101963.03;6274569;22;45388;-62
2021/08/25 01:37:33;;;;;;;;;10.00;5.50;;;;;18.88;51.91;101961.22;6274039;22;45970;-63
2021/08/25 01:40:00;;;;;;;;;8.25;6.00;;;;;18.89;51.66;101966.47;6274270;22;45345;-62
2021/08/25 01:42:26;;;;;;;;;8.00;6.75;;;;;18.89;52.02;101965.63;6274078;22;45198;-62
2021/08/25 01:44:52;;;;;;;;;6.00;5.00;;;;;18.88;51.89;101966.56;6274358;22;45239;-62
2021/08/25 01:47:19;;;;;;;;;9.00;8.00;;;;;18.86;51.66;101958.66;6273364;22;46153;-62
2021/08/25 01:49:47;;;;;;;;;5.25;5.25;;;;;18.84;52.09;101957.94;6274039;22;45249;-62
2021/08/25 01:52:14;;;;;;;;;6.00;6.00;;;;;18.82;51.75;101954.53;6273993;22;45189;-62
2021/08/25 01:54:41;;;;;;;;;7.25;6.25;;;;;18.83;51.90;101953.56;6274157;22;45287;-63
2021/08/25 01:57:07;;;;;;;;;7.00;5.25;;;;;18.81;52.07;101960.84;6273600;22;45246;-63
2021/08/25 01:59:34;;;;;;;;;5.50;5.50;;;;;18.79;51.70;101951.22;6273994;22;45361;-62
2021/08/25 02:02:00;;;;;;;;;5.50;5.50;;;;;18.76;52.04;101946.97;6273882;22;45226;-62
2021/08/25 02:04:25;;;;;;;;;7.00;5.25;;;;;18.73;52.00;101957.03;6274310;22;45317;-63
2021/08/25 02:06:53;;;;;;;;;11.00;8.50;;;;;18.71;52.42;101956.28;6274126;22;45330;-62
2021/08/25 02:09:19;;;;;;;;;6.50;6.25;;;;;18.67;52.50;101948.50;6273950;22;45161;-63
2021/08/25 02:11:44;;;;;;;;;7.75;7.00;;;;;18.68;52.24;101946.69;6274104;22;45404;-63
2021/08/25 02:14:10;;;;;;;;;6.25;5.00;;;;;18.68;52.52;101939.53;6274334;22;45241;-63
2021/08/25 02:16:35;;;;;;;;;11.00;8.00;;;;;18.67;52.22;101947.66;6274040;22;45506;-63
2021/08/25 02:19:01;;;;;;;;;6.75;6.75;;;;;18.66;52.41;101940.63;6273468;22;45224;-63
2021/08/25 02:21:27;;;;;;;;;11.75;8.25;;;;;18.62;52.71;101936.44;6274056;22;45226;-63
2021/08/25 02:23:53;;;;;;;;;9.00;8.00;;;;;18.61;52.42;101930.25;6273941;22;45298;-62
2021/08/25 02:26:19;;;;;;;;;7.00;6.50;;;;;18.58;52.63;101934.97;6273776;22;45594;-62
2021/08/25 02:28:46;;;;;;;;;9.00;7.00;;;;;18.56;52.89;101936.88;6273796;22;45266;-63
2021/08/25 02:31:12;;;;;;;;;6.00;5.25;;;;;18.53;52.93;101927.28;6273817;22;45216;-63
2021/08/25 02:33:38;;;;;;;;;9.25;7.75;;;;;18.53;52.98;101931.78;6273317;22;45266;-63
2021/08/25 02:36:04;;;;;;;;;9.00;7.25;;;;;18.52;52.88;101933.59;6273131;22;45285;-63
2021/08/25 02:38:30;;;;;;;;;7.25;7.25;;;;;18.52;52.77;101938.09;6275545;22;45290;-62
2021/08/25 02:40:55;;;;;;;;;8.75;7.75;;;;;18.48;53.09;101940.09;6275428;22;45294;-63
2021/08/25 02:43:21;;;;;;;;;8.25;6.50;;;;;18.45;52.98;101942.16;6276101;22;45248;-63
2021/08/25 02:45:46;;;;;;;;;7.00;7.00;;;;;18.42;53.39;101932.59;6275392;22;46011;-63
2021/08/25 02:48:12;;;;;;;;;8.00;7.75;;;;;18.40;53.46;101927.34;6274900;22;45514;-63
2021/08/25 02:50:37;;;;;;;;;7.00;7.00;;;;;18.38;53.22;101937.28;6275932;22;45352;-63
2021/08/25 02:53:03;;;;;;;;;8.00;8.00;;;;;18.41;53.76;101938.88;6275685;22;45300;-63
2021/08/25 02:55:28;;;;;;;;;11.00;9.00;;;;;18.37;53.37;101943.56;6275120;22;45321;-63
2021/08/25 02:57:54;;;;;;;;;7.25;7.25;;;;;18.35;53.41;101939.31;6275579;22;45244;-62
2021/08/25 03:00:19;;;;;;;;;8.00;8.00;;;;;18.31;53.78;101932.50;6276132;22;45128;-63
2021/08/25 03:02:45;;;;;;;;;7.75;7.00;;;;;18.27;53.71;101928.38;6275620;22;45297;-63
2021/08/25 03:05:11;;;;;;;;;7.25;7.00;;;;;18.25;54.06;101932.97;6275720;22;45408;-62
2021/08/25 03:07:36;;;;;;;;;8.25;7.75;;;;;18.25;53.87;101925.81;6274914;22;45258;-62
2021/08/25 03:10:03;;;;;;;;;8.00;7.50;;;;;18.26;54.09;101932.84;6275708;22;45203;-63
2021/08/25 03:12:28;;;;;;;;;8.75;8.00;;;;;18.23;54.11;101919.72;6275682;22;45434;-63
2021/08/25 03:14:53;;;;;;;;;8.50;8.50;;;;;18.19;54.14;101928.91;6275507;22;45305;-63
2021/08/25 03:17:19;;;;;;;;;10.50;8.25;;;;;18.19;54.06;101931.59;6274346;22;45284;-63
2021/08/25 03:19:44;;;;;;;;;10.75;9.00;;;;;18.17;54.16;101929.97;6275454;22;45309;-62
2021/08/25 03:22:10;;;;;;;;;9.00;8.50;;;;;18.15;54.07;101932.75;6275391;22;45529;-62
2021/08/25 03:24:36;;;;;;;;;8.75;7.75;;;;;18.10;54.35;101926.91;6273819;22;46026;-62
2021/08/25 03:27:02;;;;;;;;;8.50;8.00;;;;;18.07;54.25;101925.31;6274600;22;45244;-63
2021/08/25 03:29:27;;;;;;;;;9.25;7.50;;;;;18.06;54.52;101922.75;6275762;22;45263;-63
2021/08/25 03:31:53;;;;;;;;;8.00;7.00;;;;;18.04;54.81;101922.88;6275356;22;45281;-62
2021/08/25 03:34:18;;;;;;;;;8.00;7.00;;;;;18.03;54.47;101921.16;6274564;22;45536;-62
2021/08/25 03:36:43;;;;;;;;;9.00;8.00;;;;;18.02;54.48;101919.47;6273027;22;45326;-63
2021/08/25 03:39:09;;;;;;;;;10.75;8.00;;;;;18.02;54.67;101907.97;6275225;22;45252;-62
2021/08/25 03:41:34;;;;;;;;;7.00;7.00;;;;;18.00;54.87;101910.72;6275581;22;45226;-63
2021/08/25 03:44:01;;;;;;;;;10.00;7.00;;;;;17.99;54.73;101913.50;6274923;22;46272;-62
2021/08/25 03:46:27;;;;;;;;;7.50;7.00;;;;;17.99;54.91;101916.16;6274780;22;45257;-63
2021/08/25 03:48:52;;;;;;;;;12.25;9.00;;;;;17.96;55.08;101924.38;6273611;22;45331;-62
2021/08/25 03:51:18;;;;;;;;;9.25;8.75;;;;;17.93;54.93;101919.25;6275212;22;45438;-63
2021/08/25 03:53:43;;;;;;;;;10.25;10.25;;;;;17.90;55.27;101912.34;6275305;22;46072;-62
2021/08/25 03:56:09;;;;;;;;;7.00;6.00;;;;;17.88;54.89;101919.59;6274596;22;45226;-62
2021/08/25 03:58:34;;;;;;;;;12.00;10.00;;;;;17.85;55.21;101917.13;6275235;22;45349;-62
2021/08/25 04:01:00;;;;;;;;;7.75;7.75;;;;;17.82;54.98;101915.56;6275106;22;45303;-63
2021/08/25 04:03:25;;;;;;;;;11.25;8.00;;;;;17.80;55.29;101909.47;6274512;22;45258;-63
2021/08/25 04:05:51;;;;;;;;;10.25;7.75;;;;;17.79;55.29;101910.44;6274170;22;45324;-62
2021/08/25 04:08:16;;;;;;;;;11.25;9.25;;;;;17.81;55.36;101907.66;6275082;22;45353;-62
2021/08/25 04:10:41;;;;;;;;;8.25;8.00;;;;;17.83;55.42;101908.41;6274995;22;45384;-62
2021/08/25 04:13:07;;;;;;;;;9.00;9.00;;;;;17.80;55.50;101916.63;6274718;22;45919;-63
2021/08/25 04:15:32;;;;;;;;;8.00;7.25;;;;;17.75;55.70;101910.75;6274860;22;45634;-63
2021/08/25 04:17:58;;;;;;;;;11.50;9.00;;;;;17.75;55.59;101910.75;6274729;22;45261;-62
2021/08/25 04:20:24;;;;;;;;;7.50;7.00;;;;;17.72;55.64;101908.31;6275090;22;45420;-62
2021/08/25 04:22:49;;;;;;;;;16.50;10.50;;;;;17.67;56.09;101902.41;6274831;22;46035;-63
2021/08/25 04:25:15;;;;;;;;;10.25;8.00;;;;;17.67;56.15;101913.09;6274786;22;45124;-63
2021/08/25 04:27:40;;;;;;;;;10.00;9.00;;;;;17.65;56.03;101915.00;6274815;22;45181;-63
2021/08/25 04:30:06;;;;;;;;;7.00;7.00;;;;;17.64;56.02;101910.66;6274947;22;45519;-62
2021/08/25 04:32:32;;;;;;;;;9.00;7.00;;;;;17.63;56.17;101908.94;6274166;22;45981;-63
2021/08/25 04:34:57;;;;;;;;;9.00;7.50;;;;;17.61;56.24;101909.03;6274723;22;45191;-63
2021/08/25 04:37:23;;;;;;;;;10.75;9.75;;;;;17.55;56.04;101906.81;6273962;22;45260;-63
2021/08/25 04:39:48;;;;;;;;;8.75;8.75;;;;;17.56;56.13;101911.19;6274664;22;45436;-63
2021/08/25 04:42:14;;;;;;;;;11.00;8.75;;;;;17.55;56.38;101909.47;6273708;22;46361;-62
2021/08/25 04:44:39;;;;;;;;;8.25;6.00;;;;;17.55;56.66;101912.16;6274462;22;45286;-62
2021/08/25 04:47:05;;;;;;;;;9.00;8.25;;;;;17.50;56.57;101912.44;6273966;22;45190;-63
2021/08/25 04:49:30;;;;;;;;;11.75;8.00;;;;;17.44;56.70;101904.03;6274059;22;45328;-62
2021/08/25 04:51:56;;;;;;;;;9.00;6.25;;;;;17.42;56.77;101911.28;6274262;22;45295;-63
2021/08/25 04:54:21;;;;;;;;;13.75;9.75;;;;;17.40;57.09;101913.22;6274452;22;45248;-62
2021/08/25 04:56:47;;;;;;;;;11.00;10.50;;;;;17.40;57.12;101902.56;6274114;22;45389;-62
2021/08/25 04:59:12;;;;;;;;;6.25;6.25;;;;;17.40;56.83;101903.41;6274807;22;45162;-63
2021/08/25 05:01:38;;;;;;;;;9.00;7.75;;;;;17.37;57.00;101903.59;6273926;22;45350;-62
2021/08/25 05:04:03;;;;;;;;;11.25;10.00;;;;;17.35;57.07;101908.19;6271715;22;45420;-62
2021/08/25 05:06:29;;;;;;;;;7.50;7.50;;;;;17.34;57.16;101913.63;6274274;22;45214;-62
2021/08/25 05:08:54;;;;;;;;;9.25;8.00;;;;;17.34;57.13;101905.63;6272642;22;45350;-62
2021/08/25 05:11:20;;;;;;;;;11.00;8.00;;;;;17.33;57.18;101907.44;6274111;22;45276;-62
2021/08/25 05:13:45;;;;;;;;;13.25;10.25;;;;;17.30;57.13;101911.19;6274272;22;45214;-62
2021/08/25 05:16:12;;;;;;;;;10.00;8.00;;;;;17.30;57.28;101911.19;6273678;22;45188;-62
2021/08/25 05:18:38;;;;;;;;;11.25;10.50;;;;;17.33;57.38;101909.25;6273343;22;45407;-62
2021/08/25 05:21:04;;;;;;;;;14.25;10.50;;;;;17.30;57.23;101899.69;6273669;22;45216;-63
2021/08/25 05:23:29;;;;;;;;;12.75;11.75;;;;;17.27;57.26;101908.72;6274189;22;45139;-62
2021/08/25 05:25:55;;;;;;;;;10.50;9.75;;;;;17.26;57.48;101907.00;6274235;22;45393;-62
2021/08/25 05:28:20;;;;;;;;;13.00;9.75;;;;;17.27;57.47;101908.72;6274602;22;45383;-62
2021/08/25 05:30:46;;;;;;;;;12.25;9.50;;;;;17.26;57.42;101914.16;6274320;22;46004;-62
2021/08/25 05:33:11;;;;;;;;;13.75;11.00;;;;;17.26;57.32;101924.81;6273796;22;45243;-62
2021/08/25 05:35:36;;;;;;;;;14.00;9.00;;;;;17.23;57.63;101919.69;6273682;22;45367;-62
2021/08/25 05:38:02;;;;;;;;;12.00;10.00;;;;;17.26;57.43;101916.81;6274327;22;45275;-62
2021/08/25 05:40:28;;;;;;;;;13.00;10.75;;;;;17.26;57.32;101911.50;6273953;22;45868;-62
2021/08/25 05:42:53;;;;;;;;;11.75;10.75;;;;;17.29;57.41;101912.13;6274283;22;45289;-63
2021/08/25 05:45:19;;;;;;;;;19.25;14.50;;;;;17.28;57.38;101912.22;6274108;22;45231;-62
2021/08/25 05:47:44;;;;;;;;;11.00;10.00;;;;;17.31;57.53;101917.38;6273402;22;45145;-62
2021/08/25 05:50:10;;;;;;;;;9.25;8.75;;;;;17.30;57.53;101918.31;6274125;22;45184;-61
2021/08/25 05:52:36;;;;;;;;;12.00;9.00;;;;;17.35;57.72;101907.34;6273999;22;45263;-61
2021/08/25 05:55:01;;;;;;;;;12.75;9.00;;;;;17.43;57.39;101923.63;6274416;22;45251;-61
2021/08/25 05:57:27;;;;;;;;;10.00;10.00;;;;;17.48;57.46;101909.06;6273702;22;45099;-62
2021/08/25 05:59:52;;;;;;;;;13.00;10.75;;;;;17.58;57.22;101920.75;6273357;22;45189;-62
2021/08/25 06:02:18;;;;;;;;;14.25;10.50;;;;;17.61;56.98;101917.03;6273814;22;45211;-62
2021/08/25 06:04:43;;;;;;;;;15.50;11.25;;;;;17.69;56.95;101927.16;6274077;22;45444;-62
2021/08/25 06:07:10;;;;;;;;;14.75;10.00;;;;;17.76;56.86;101928.44;6273925;22;45253;-62
2021/08/25 06:09:36;;;;;;;;;13.00;11.25;;;;;17.78;56.42;101927.41;6273791;22;45319;-62
2021/08/25 06:12:03;;;;;;;;;14.75;11.00;;;;;17.77;56.56;101928.38;6269597;22;45349;-60
2021/08/25 06:14:28;;;;;;;;;16.00;10.25;;;;;17.82;56.45;101928.88;6275895;22;45361;-62
2021/08/25 06:16:54;;;;;;;;;11.50;10.00;;;;;17.87;56.29;101927.72;6275475;22;45170;-59
2021/08/25 06:19:19;;;;;;;;;9.00;9.00;;;;;17.94;56.23;101927.16;6273277;22;45265;-59
2021/08/25 06:21:46;;;;;;;;;21.50;12.75;;;;;18.05;56.26;101926.38;6273161;22;45596;-60
2021/08/25 06:24:11;;;;;;;;;9.50;8.25;;;;;18.18;55.75;101921.03;6273302;22;45516;-59
2021/08/25 06:26:37;;;;;;;;;11.50;9.50;;;;;18.26;56.09;101921.34;6272835;22;45577;-59
2021/08/25 06:29:02;;;;;;;;;6.75;6.25;;;;;18.35;58.58;101921.50;6272357;22;45490;-61
2021/08/25 06:31:28;;;;;;;;;14.75;10.75;;;;;18.59;56.93;101916.16;6273182;22;45342;-61
2021/08/25 06:33:53;;;;;;;;;11.75;8.75;;;;;18.63;55.95;101924.78;6274144;22;45319;-62
2021/08/25 06:36:19;;;;;;;;;7.75;7.00;;;;;18.74;57.60;101918.69;6275494;22;45424;-62
2021/08/25 06:38:44;;;;;;;;;11.50;9.00;;;;;18.88;57.31;101916.69;6275404;22;46248;-61
2021/08/25 06:41:10;;;;;;;;;9.50;7.50;;;;;19.07;57.78;101915.28;6271751;22;45283;-60
2021/08/25 06:43:36;;;;;;;;;11.50;8.00;;;;;19.28;57.58;101923.50;6275302;22;45275;-61
2021/08/25 06:46:02;;;;;;;;;6.75;6.75;;;;;19.49;56.96;101921.81;6273482;22;45456;-61
2021/08/25 06:48:28;;;;;;;;;12.50;10.25;;;;;19.70;56.41;101916.63;6273648;22;45324;-62
2021/08/25 06:50:54;;;;;;;;;12.25;10.00;;;;;19.88;55.27;101923.19;6275261;22;45251;-63
2021/08/25 06:53:21;;;;;;;;;10.75;8.75;;;;;20.01;55.23;101926.59;6274862;22;45323;-62
2021/08/25 06:55:47;;;;;;;;;10.75;10.00;;;;;20.08;53.16;101930.47;6275341;22;45461;-64
2021/08/25 06:58:12;;;;;;;;;13.50;10.50;;;;;20.06;54.12;101927.09;6275235;22;46051;-64
2021/08/25 07:00:38;;;;;;;;;9.00;8.50;;;;;20.05;55.42;101930.72;6275377;22;45290;-62
2021/08/25 07:03:03;;;;;;;;;11.00;9.00;;;;;20.12;55.44;101925.72;6275075;22;45305;-61
2021/08/25 07:05:29;;;;;;;;;9.25;7.75;;;;;20.20;55.06;101931.31;6275944;22;45506;-62
2021/08/25 07:07:55;;;;;;;;;8.00;8.00;;;;;20.22;53.11;101934.72;6275284;22;45832;-62
2021/08/25 07:10:21;;;;;;;;;10.00;9.50;;;;;20.16;52.89;101931.69;6275466;22;45350;-60
2021/08/25 07:12:47;;;;;;;;;11.00;8.75;;;;;20.07;52.30;101933.28;6273242;22;45426;-61
2021/08/25 07:15:17;;;;;;;;;10.75;9.00;;;;;19.93;52.65;101938.88;6272697;22;45422;-62
2021/08/25 07:17:46;;;;;;;;;8.50;8.50;;;;;19.82;52.12;101946.88;6271546;22;45413;-61
2021/08/25 07:20:13;;;;;;;;;8.75;8.25;;;;;19.72;52.46;101934.25;6272411;22;45357;-62
2021/08/25 07:22:39;;;;;;;;;11.00;8.25;;;;;19.66;52.71;101926.69;6272879;22;45429;-60
2021/08/25 07:25:06;;;;;;;;;13.25;9.00;;;;;19.63;52.55;101932.31;6272536;22;45484;-60
2021/08/25 07:27:32;;;;;;;;;10.50;7.50;;;;;19.59;52.88;101927.31;6273082;22;45282;-60
2021/08/25 07:29:57;;;;;;;;;10.50;9.00;;;;;19.57;52.89;101922.09;6274708;22;45281;-61
2021/08/25 07:32:23;;;;;;;;;8.00;6.75;;;;;19.55;53.12;101921.34;6274988;22;45170;-60
2021/08/25 07:34:48;;;;;;;;;12.00;9.25;;;;;19.55;52.67;101918.66;6275558;22;45192;-61
2021/08/25 07:37:14;;;;;;;;;6.75;6.75;;;;;19.58;53.01;101914.91;6274931;22;45587;-60
2021/08/25 07:39:40;;;;;;;;;11.50;8.50;;;;;19.60;53.02;101918.34;6275311;22;45499;-61
2021/08/25 07:42:05;;;;;;;;;7.25;7.25;;;;;19.63;53.46;101929.63;6275474;22;45336;-61
2021/08/25 07:44:31;;;;;;;;;6.75;6.75;;;;;19.66;53.38;101925.84;6275314;22;45423;-60
2021/08/25 07:46:56;;;;;;;;;9.00;8.00;;;;;19.68;53.13;101922.13;6273123;22;46084;-61
2021/08/25 07:49:23;;;;;;;;;10.00;10.00;;;;;19.73;52.82;101929.75;6274286;22;45303;-61
2021/08/25 07:51:49;;;;;;;;;9.00;8.25;;;;;19.74;53.44;101921.59;6274660;22;45315;-61
2021/08/25 07:54:15;;;;;;;;;8.25;7.00;;;;;19.75;52.88;101923.34;6274929;22;45179;-61
2021/08/25 07:56:40;;;;;;;;;11.75;8.75;;;;;19.78;53.10;101927.56;6274791;22;45256;-60
2021/08/25 07:59:05;;;;;;;;;8.75;7.75;;;;;19.78;53.15;101925.75;6275262;22;45179;-61
2021/08/25 08:01:31;;;;;;;;;8.00;6.25;;;;;19.79;53.05;101922.09;6275070;22;45258;-60
2021/08/25 08:03:57;;;;;;;;;8.50;7.00;;;;;19.82;52.85;101920.16;6274981;22;45422;-61
2021/08/25 08:06:22;;;;;;;;;8.50;7.50;;;;;19.83;52.98;101911.16;6274160;22;45224;-61
2021/08/25 08:08:48;;;;;;;;;10.50;9.25;;;;;19.86;52.59;101914.44;6275256;22;45209;-60
2021/08/25 08:11:14;;;;;;;;;9.75;8.25;;;;;19.87;52.77;101907.28;6275297;22;45248;-60
2021/08/25 08:13:40;;;;;;;;;8.25;8.25;;;;;19.91;52.46;101909.59;6275265;22;45434;-61
2021/08/25 08:16:06;;;;;;;;;8.00;8.00;;;;;19.95;52.62;101912.84;6274867;22;45315;-61
2021/08/25 08:18:35;;;;;;;;;9.75;7.75;;;;;19.96;52.93;101907.38;6274240;22;45249;-61
2021/08/25 08:21:01;;;;;;;;;11.00;8.75;;;;;20.02;52.68;101908.72;6275216;22;45073;-60
2021/08/25 08:23:26;;;;;;;;;8.50;7.75;;;;;20.05;52.26;101908.47;6275093;22;45446;-61
2021/08/25 08:25:52;;;;;;;;;8.50;8.50;;;;;20.09;52.75;101899.22;6274780;22;45217;-61
2021/08/25 08:28:18;;;;;;;;;7.50;6.00;;;;;20.13;52.14;101898.00;6275124;22;45191;-61
2021/08/25 08:30:43;;;;;;;;;11.00;9.50;;;;;20.15;52.03;101898.75;6275242;22;45165;-60
2021/08/25 08:33:09;;;;;;;;;7.75;6.75;;;;;20.21;52.57;101910.75;6274661;22;45521;-61
2021/08/25 08:35:36;;;;;;;;;10.00;7.50;;;;;20.25;52.64;101890.81;6274122;22;45265;-60
2021/08/25 08:38:06;;;;;;;;;8.25;7.75;;;;;20.35;52.97;101899.75;6274399;22;45264;-61
2021/08/25 08:40:32;;;;;;;;;11.00;9.00;;;;;20.43;52.56;101896.47;6274954;22;45256;-60
2021/08/25 08:43:09;;;;;;;;;10.00;9.75;;;;;20.53;52.45;101890.25;6274799;22;45111;-60
2021/08/25 08:45:40;;;;;;;;;10.25;10.25;;;;;20.62;52.18;101891.34;6274520;22;46118;-61
2021/08/25 08:48:10;;;;;;;;;9.00;9.00;;;;;20.68;52.05;101896.16;6273916;22;45158;-60
2021/08/25 08:50:38;;;;;;;;;11.00;10.00;;;;;20.71;51.30;101892.38;6274750;22;45328;-60
2021/08/25 08:53:07;;;;;;;;;12.25;11.00;;;;;20.74;51.87;101897.47;6274534;22;45182;-61
2021/08/25 08:55:33;;;;;;;;;7.25;7.25;;;;;20.77;51.61;101897.19;6274585;22;45428;-61
2021/08/25 08:57:58;;;;;;;;;14.25;10.00;;;;;20.85;51.66;101900.97;6273937;22;45103;-61
2021/08/25 09:00:24;;;;;;;;;12.50;9.75;;;;;20.92;51.15;101899.44;6274682;22;45252;-60
2021/08/25 09:02:49;;;;;;;;;8.50;8.50;;;;;21.00;51.02;101895.25;6272201;22;45212;-60
2021/08/25 09:05:16;;;;;;;;;8.00;7.00;;;;;21.00;50.90;101900.63;6274774;22;45318;-60
2021/08/25 09:07:53;;;;;;;;;9.00;7.50;;;;;21.07;50.90;101893.75;6274006;22;45306;-61
2021/08/25 09:10:24;;;;;;;;;12.00;10.00;;;;;21.12;50.49;101889.72;6274355;22;45251;-60
2021/08/25 09:12:52;;;;;;;;;10.50;9.00;;;;;21.19;50.42;101885.53;6274763;22;45502;-62
2021/08/25 09:15:23;;;;;;;;;12.75;9.25;;;;;21.20;50.69;101889.06;6273867;22;45979;-60
2021/08/25 09:18:06;;;;;;;;;9.75;9.75;;;;;21.23;50.30;101886.09;6273420;22;45182;-60
2021/08/25 09:20:35;;;;;;;;;9.25;9.00;;;;;21.29;50.00;101887.44;6273868;22;45159;-60
2021/08/25 09:23:20;;;;;;;;;10.25;9.75;;;;;21.34;50.15;101875.34;6274124;22;45284;-61
2021/08/25 09:25:50;;;;;;;;;10.25;9.00;;;;;21.44;49.72;101876.25;6273534;22;46444;-60
2021/08/25 09:28:25;;;;;;;;;8.00;7.00;;;;;21.49;49.65;101880.34;6273585;22;45180;-60
2021/08/25 09:30:57;;;;;;;;;12.25;10.00;;;;;21.54;49.38;101884.31;6274516;22;45095;-61
2021/08/25 09:33:43;;;;;;;;;10.00;8.00;;;;;21.57;49.52;101883.22;6273874;22;45319;-60
2021/08/25 09:36:12;;;;;;;;;14.00;11.50;;;;;21.65;49.01;101888.78;6274080;22;46168;-60
2021/08/25 09:38:39;;;;;;;;;11.00;10.00;;;;;21.69;48.71;101872.25;6273353;22;45159;-60
2021/08/25 09:41:05;;;;;;;;;7.50;7.00;;;;;21.73;48.70;101878.22;6274116;22;45214;-61
2021/08/25 09:43:45;;;;;;;;;10.50;9.00;;;;;21.81;48.69;101878.38;6273752;22;45453;-60
2021/08/25 09:46:21;;;;;;;;;10.25;7.75;;;;;21.89;48.21;101881.22;6273428;22;45190;-60
2021/08/25 09:48:58;;;;;;;;;9.75;9.25;;;;;21.93;48.29;101876.44;6273108;22;45347;-60
2021/08/25 09:51:26;;;;;;;;;9.75;8.25;;;;;22.00;47.99;101875.75;6273562;22;45281;-60
2021/08/25 09:54:07;;;;;;;;;11.25;8.00;;;;;22.06;47.95;101863.63;6274072;22;45343;-61
2021/08/25 09:56:35;;;;;;;;;9.50;8.00;;;;;22.16;48.00;101859.16;6297226;22;47790;-60
2021/08/25 09:59:05;;;;;;;;;7.50;7.00;;;;;22.21;47.62;101859.59;6274029;22;45232;-60
2021/08/25 10:01:30;;;;;;;;;7.25;7.00;;;;;22.28;46.80;101847.31;6273827;22;45149;-60
2021/08/25 10:03:57;;;;;;;;;9.50;8.25;;;;;22.32;46.73;101863.97;6273880;22;45373;-61
2021/08/25 10:06:26;;;;;;;;;10.00;8.00;;;;;22.38;47.10;101852.69;6273748;22;45161;-60
2021/08/25 10:08:53;;;;;;;;;10.50;10.00;;;;;22.43;46.70;101846.88;6273446;22;45333;-60
2021/08/25 10:11:28;;;;;;;;;9.50;7.25;;;;;22.52;46.86;101856.78;6273898;22;45331;-61
2021/08/25 10:13:56;;;;;;;;;8.25;7.25;;;;;22.57;46.25;101849.97;6274064;22;45275;-60
2021/08/25 10:16:45;;;;;;;;;10.75;7.25;;;;;22.66;46.44;101847.44;6273226;22;45626;-61
2021/08/25 10:19:31;;;;;;;;;10.50;9.00;;;;;22.73;45.89;101846.72;6273405;22;45190;-60
2021/08/25 10:22:02;;;;;;;;;8.00;8.00;;;;;22.79;45.84;101838.09;6273756;22;45194;-61
2021/08/25 10:24:54;;;;;;;;;8.75;7.50;;;;;22.80;45.34;101847.00;6273979;22;45501;-60
2021/08/25 10:27:21;;;;;;;;;9.00;8.00;;;;;22.81;45.38;101833.41;6270703;22;47649;-60
2021/08/25 10:30:02;;;;;;;;;5.75;5.75;;;;;22.89;45.16;101842.63;6273296;22;45156;-60
2021/08/25 10:32:29;;;;;;;;;9.75;8.50;;;;;22.90;44.87;101833.56;6272486;22;45247;-61
2021/08/25 10:35:17;;;;;;;;;5.00;5.00;;;;;22.99;44.31;101824.66;6273465;22;45262;-60
2021/08/25 10:37:44;;;;;;;;;5.50;5.50;;;;;23.04;43.08;101833.13;6273055;22;46018;-60
2021/08/25 10:40:10;;;;;;;;;8.00;8.00;;;;;23.02;43.69;101827.06;6273170;22;45173;-61
2021/08/25 10:42:59;;;;;;;;;6.00;6.00;;;;;23.03;44.22;101829.59;6273579;22;45268;-61
2021/08/25 10:45:43;;;;;;;;;7.75;7.75;;;;;23.01;43.88;101825.34;6273151;22;45566;-62
2021/08/25 10:48:10;;;;;;;;;8.75;8.75;;;;;23.03;43.86;101826.06;6271795;22;45300;-61
2021/08/25 10:50:56;;;;;;;;;9.25;6.25;;;;;23.11;44.33;101832.38;6273386;22;45149;-60
2021/08/25 10:53:27;;;;;;;;;8.25;7.00;;;;;23.15;44.55;101819.53;6273219;22;45201;-60
2021/08/25 10:56:18;;;;;;;;;9.50;7.00;;;;;23.19;43.66;101815.53;6273290;22;45232;-60
2021/08/25 10:58:58;;;;;;;;;6.00;6.00;;;;;23.21;43.84;101810.00;6273575;22;45988;-61
2021/08/25 11:01:31;;;;;;;;;7.00;7.00;;;;;23.24;43.43;101823.16;6273847;22;45243;-60
2021/08/25 11:04:17;;;;;;;;;6.25;3.25;;;;;23.27;43.79;101814.78;6275114;22;45248;-60
2021/08/25 11:07:02;;;;;;;;;6.00;6.00;;;;;23.29;43.54;101818.19;6274222;22;45271;-60
2021/08/25 11:09:31;;;;;;;;;7.75;6.75;;;;;23.33;43.32;101798.09;6274475;22;45351;-60
2021/08/25 11:12:09;;;;;;;;;6.50;6.50;;;;;23.39;43.34;101797.50;6274968;22;45170;-61
2021/08/25 11:14:36;;;;;;;;;8.75;8.00;;;;;23.46;43.29;101795.03;6275178;22;45186;-62
2021/08/25 11:17:18;;;;;;;;;7.50;7.00;;;;;23.52;43.31;101787.22;6274966;22;45244;-61
2021/08/25 11:19:54;;;;;;;;;9.25;8.00;;;;;23.61;43.00;101783.66;6274433;22;45172;-60
2021/08/25 11:22:25;;;;;;;;;6.75;6.75;;;;;23.67;43.02;101776.84;6274603;22;45174;-61
2021/08/25 11:24:56;;;;;;;;;11.00;5.75;;;;;23.77;42.63;101783.00;6275144;22;45146;-61